createdAt,value
2019-04-21T00:01:20.184Z,13.30
2019-04-21T00:03:54.904Z,12.90
2019-04-21T00:06:45.914Z,24.53
2019-04-21T00:09:19.113Z,13.43
2019-04-21T00:11:40.826Z,12.33
2019-04-21T00:14:05.720Z,17.10
2019-04-21T00:16:37.706Z,12.70
2019-04-21T00:19:21.761Z,14.20
2019-04-21T00:21:58.110Z,14.57
2019-04-21T00:24:36.267Z,14.77
2019-04-21T00:27:05.720Z,19.40
2019-04-21T00:32:08.596Z,13.87
2019-04-21T00:34:25.616Z,17.50
2019-04-21T00:37:07.610Z,18.00
2019-04-21T00:39:56.985Z,14.83
2019-04-21T00:42:14.345Z,16.73
2019-04-21T00:44:38.785Z,16.57
2019-04-21T00:47:25.078Z,14.83
2019-04-21T00:49:52.157Z,16.20
2019-04-21T00:53:06.767Z,16.23
2019-04-21T00:55:33.913Z,17.70
2019-04-21T00:58:03.244Z,15.37
2019-04-21T01:00:28.755Z,15.30
2019-04-21T01:03:04.657Z,14.63
2019-04-21T01:05:36.101Z,17.13
2019-04-21T01:08:01.431Z,16.50
2019-04-21T01:10:26.660Z,17.77
2019-04-21T01:13:12.890Z,20.03
2019-04-21T01:15:46.118Z,17.63
2019-04-21T01:18:13.207Z,16.47
2019-04-21T01:20:20.278Z,15.43
2019-04-21T01:22:49.938Z,15.17
2019-04-21T01:25:29.362Z,15.63
2019-04-21T01:28:07.264Z,17.93
2019-04-21T01:30:43.102Z,16.37
2019-04-21T01:33:20.096Z,17.17
2019-04-21T01:35:45.322Z,17.53
2019-04-21T01:38:35.722Z,18.37
2019-04-21T01:40:44.686Z,16.63
2019-04-21T01:43:13.390Z,17.80
2019-04-21T01:45:44.775Z,17.43
2019-04-21T01:48:10.372Z,18.93
2019-04-21T01:50:46.815Z,16.87
2019-04-21T01:53:42.539Z,17.33
2019-04-21T01:56:24.120Z,21.17
2019-04-21T01:58:46.475Z,19.80
2019-04-21T02:01:23.967Z,16.37
2019-04-21T02:03:58.397Z,18.60
2019-04-21T02:06:29.184Z,19.23
2019-04-21T02:08:58.060Z,18.13
2019-04-21T02:11:30.057Z,19.83
2019-04-21T02:14:09.033Z,18.20
2019-04-21T02:16:28.273Z,17.33
2019-04-21T02:18:58.842Z,16.77
2019-04-21T02:21:31.722Z,16.93
2019-04-21T02:26:36.185Z,19.83
2019-04-21T02:29:08.447Z,22.13
2019-04-21T02:32:00.365Z,21.23
2019-04-21T02:34:18.445Z,18.70
2019-04-21T02:37:13.207Z,18.93
2019-04-21T02:39:20.993Z,22.10
2019-04-21T02:42:03.405Z,20.20
2019-04-21T02:46:50.413Z,21.23
2019-04-21T02:49:38.109Z,22.03
2019-04-21T02:57:03.296Z,20.50
2019-04-21T02:59:33.811Z,19.40
2019-04-21T03:05:05.234Z,18.90
2019-04-21T03:07:32.448Z,20.27
2019-04-21T03:10:10.735Z,18.90
2019-04-21T03:12:38.517Z,17.87
2019-04-21T03:15:18.115Z,19.57
2019-04-21T03:17:51.416Z,22.40
2019-04-21T03:22:49.077Z,20.73
2019-04-21T03:25:26.913Z,22.47
2019-04-21T03:28:00.796Z,22.93
2019-04-21T03:30:32.717Z,23.17
2019-04-21T03:37:47.770Z,23.13
2019-04-21T03:42:47.754Z,19.17
2019-04-21T03:45:31.087Z,24.70
2019-04-21T03:47:57.061Z,23.83
2019-04-21T03:50:29.717Z,27.77
2019-04-21T03:58:19.699Z,23.97
2019-04-21T04:03:46.029Z,25.17
2019-04-21T04:14:26.868Z,23.97
2019-04-21T04:16:57.038Z,23.40
2019-04-21T04:19:26.276Z,25.33
2019-04-21T04:22:01.280Z,23.00
2019-04-21T04:24:57.561Z,23.80
2019-04-21T04:26:57.322Z,25.20
2019-04-21T04:29:25.739Z,24.00
2019-04-21T04:31:50.957Z,24.37
2019-04-21T04:37:12.303Z,26.73
2019-04-21T04:47:22.778Z,28.83
2019-04-21T04:57:45.107Z,28.20
2019-04-21T05:02:33.837Z,27.40
2019-04-21T05:05:20.681Z,30.63
2019-04-21T05:07:46.479Z,27.70
2019-04-21T05:09:59.718Z,27.83
2019-04-21T05:12:32.517Z,30.57
2019-04-21T05:20:11.780Z,33.60
2019-04-21T05:22:47.651Z,31.00
2019-04-21T05:24:55.244Z,29.17
2019-04-21T05:27:36.558Z,29.80
2019-04-21T05:30:43.502Z,29.33
2019-04-21T05:33:38.117Z,28.33
2019-04-21T05:36:10.497Z,28.70
2019-04-21T05:39:02.534Z,29.33
2019-04-21T05:41:26.580Z,30.23
2019-04-21T05:44:09.600Z,29.13
2019-04-21T05:46:47.856Z,30.80
2019-04-21T05:49:20.441Z,30.53
2019-04-21T05:51:55.659Z,31.63
2019-04-21T05:54:39.565Z,31.77
2019-04-21T05:57:05.965Z,33.73
2019-04-21T05:59:41.700Z,34.57
2019-04-21T06:02:16.600Z,33.70
2019-04-21T06:05:01.881Z,34.87
2019-04-21T06:07:21.571Z,31.90
2019-04-21T06:09:49.925Z,34.40
2019-04-21T06:12:08.760Z,34.83
2019-04-21T06:14:52.232Z,41.37
2019-04-21T06:17:19.295Z,36.80
2019-04-21T06:19:49.491Z,37.80
2019-04-21T06:22:14.848Z,40.30
2019-04-21T06:25:16.168Z,35.47
2019-04-21T06:27:26.472Z,38.33
2019-04-21T06:29:50.221Z,37.63
2019-04-21T06:32:30.309Z,40.03
2019-04-21T06:35:12.478Z,40.57
2019-04-21T06:37:43.215Z,42.90
2019-04-21T06:40:15.298Z,38.87
2019-04-21T06:42:40.186Z,39.63
2019-04-21T06:45:32.144Z,39.90
2019-04-21T06:47:44.667Z,38.13
2019-04-21T06:50:07.558Z,39.40
2019-04-21T06:52:54.955Z,43.47
2019-04-21T06:55:15.531Z,42.03
2019-04-21T06:57:44.363Z,39.13
2019-04-21T07:00:15.042Z,38.20
2019-04-21T07:02:59.962Z,41.30
2019-04-21T07:05:24.664Z,40.83
2019-04-21T07:08:08.823Z,40.90
2019-04-21T07:10:24.230Z,40.73
2019-04-21T07:12:51.604Z,37.40
2019-04-21T07:15:28.366Z,38.40
2019-04-21T07:17:59.929Z,40.63
2019-04-21T07:20:28.206Z,36.30
2019-04-21T07:23:03.209Z,38.93
2019-04-21T07:28:02.953Z,41.17
2019-04-21T07:30:37.745Z,36.73
2019-04-21T07:35:38.234Z,35.23
2019-04-21T07:38:11.655Z,38.10
2019-04-21T07:40:40.541Z,33.17
2019-04-21T07:43:09.332Z,35.30
2019-04-21T07:45:40.153Z,34.50
2019-04-21T07:48:21.636Z,38.00
2019-04-21T07:50:57.472Z,36.57
2019-04-21T07:53:43.713Z,36.57
2019-04-21T07:55:49.510Z,38.60
2019-04-21T07:58:38.698Z,36.27
2019-04-21T08:01:14.862Z,35.87
2019-04-21T08:03:42.820Z,36.47
2019-04-21T08:06:12.494Z,37.07
2019-04-21T08:08:44.827Z,36.47
2019-04-21T08:11:10.899Z,33.83
2019-04-21T08:13:55.140Z,35.33
2019-04-21T08:16:20.736Z,35.63
2019-04-21T08:18:45.567Z,34.13
2019-04-21T08:21:20.677Z,35.23
2019-04-21T08:23:47.930Z,32.63
2019-04-21T08:26:24.282Z,33.63
2019-04-21T08:29:10.030Z,35.77
2019-04-21T08:31:34.118Z,33.93
2019-04-21T08:34:03.353Z,31.63
2019-04-21T08:36:28.059Z,34.63
2019-04-21T08:39:01.052Z,32.13
2019-04-21T08:41:31.627Z,32.53
2019-04-21T08:44:02.529Z,30.50
2019-04-21T08:46:44.659Z,32.60
2019-04-21T08:49:08.047Z,34.27
2019-04-21T08:51:39.491Z,33.77
2019-04-21T08:54:15.066Z,34.03
2019-04-21T08:57:01.270Z,33.07
2019-04-21T08:59:55.081Z,34.37
2019-04-21T09:02:40.452Z,39.83
2019-04-21T09:05:14.186Z,38.60
2019-04-21T09:07:44.662Z,37.73
2019-04-21T09:10:14.395Z,35.27
2019-04-21T09:12:49.052Z,33.97
2019-04-21T09:15:18.979Z,34.07
2019-04-21T09:17:44.808Z,35.53
2019-04-21T09:20:25.964Z,32.80
2019-04-21T09:22:54.440Z,33.57
2019-04-21T09:25:28.606Z,29.67
2019-04-21T09:28:00.865Z,32.00
2019-04-21T09:30:12.998Z,31.10
2019-04-21T09:32:44.468Z,29.77
2019-04-21T09:35:19.111Z,27.53
2019-04-21T09:37:58.379Z,30.40
2019-04-21T09:40:27.360Z,28.80
2019-04-21T09:42:59.488Z,32.77
2019-04-21T09:45:26.425Z,32.10
2019-04-21T09:48:06.103Z,31.20
2019-04-21T09:50:31.750Z,32.23
2019-04-21T09:53:12.995Z,33.47
2019-04-21T09:55:44.006Z,32.87
2019-04-21T09:58:13.482Z,32.73
2019-04-21T10:00:46.482Z,29.30
2019-04-21T10:03:12.019Z,32.87
2019-04-21T10:05:40.055Z,28.63
2019-04-21T10:08:10.484Z,24.80
2019-04-21T10:10:40.109Z,24.70
2019-04-21T10:13:10.639Z,25.03
2019-04-21T10:15:41.885Z,20.03
2019-04-21T10:18:17.258Z,20.57
2019-04-21T10:20:47.498Z,23.63
2019-04-21T10:23:17.752Z,22.80
2019-04-21T10:25:48.492Z,21.93
2019-04-21T10:28:19.111Z,22.63
2019-04-21T10:30:49.061Z,25.97
2019-04-21T10:33:18.783Z,21.13
2019-04-21T10:35:48.887Z,19.87
2019-04-21T10:38:29.203Z,18.67
2019-04-21T10:40:50.070Z,19.40
2019-04-21T10:43:22.159Z,20.07
2019-04-21T10:45:52.766Z,22.77
2019-04-21T10:48:23.111Z,20.17
2019-04-21T10:50:52.959Z,20.70
2019-04-21T10:53:29.069Z,21.27
2019-04-21T10:56:10.449Z,17.23
2019-04-21T10:58:36.280Z,20.93
2019-04-21T11:01:14.370Z,19.00
2019-04-21T11:03:58.505Z,20.03
2019-04-21T11:06:28.742Z,23.33
2019-04-21T11:09:01.096Z,24.10
2019-04-21T11:11:30.276Z,21.53
2019-04-21T11:14:02.458Z,22.50
2019-04-21T11:16:33.213Z,18.93
2019-04-21T11:19:04.045Z,21.77
2019-04-21T11:21:36.594Z,22.63
2019-04-21T11:24:08.064Z,20.53
2019-04-21T11:26:37.970Z,19.10
2019-04-21T11:29:10.678Z,21.60
2019-04-21T11:31:41.054Z,21.57
2019-04-21T11:34:11.334Z,20.10
2019-04-21T11:36:41.117Z,19.07
2019-04-21T11:39:42.198Z,21.97
2019-04-21T11:42:12.088Z,18.53
2019-04-21T11:44:42.040Z,20.07
2019-04-21T11:47:20.527Z,22.53
2019-04-21T11:49:53.121Z,23.50
2019-04-21T11:52:22.892Z,20.87
2019-04-21T11:54:53.149Z,21.63
2019-04-21T11:57:30.435Z,25.43
2019-04-21T11:59:57.579Z,22.90
2019-04-21T12:02:27.649Z,20.60
2019-04-21T12:04:57.521Z,22.90
2019-04-21T12:07:27.296Z,23.53
2019-04-21T12:09:57.531Z,25.03
2019-04-21T12:12:27.534Z,24.90
2019-04-21T12:14:57.640Z,23.67
2019-04-21T12:17:27.967Z,26.03
2019-04-21T12:19:57.122Z,22.43
2019-04-21T12:22:31.606Z,26.07
2019-04-21T12:24:58.470Z,22.87
2019-04-21T12:27:28.058Z,27.10
2019-04-21T12:29:57.852Z,24.70
2019-04-21T12:33:00.041Z,25.37
2019-04-21T12:35:31.324Z,23.73
2019-04-21T12:38:00.941Z,24.17
2019-04-21T12:40:30.697Z,24.67
2019-04-21T12:43:00.957Z,21.97
2019-04-21T12:45:31.638Z,22.87
2019-04-21T12:48:02.150Z,25.20
2019-04-21T12:50:32.106Z,23.97
2019-04-21T12:53:01.744Z,24.90
2019-04-21T12:55:36.645Z,24.97
2019-04-21T12:58:03.490Z,25.27
2019-04-21T13:00:33.426Z,26.87
2019-04-21T13:03:03.659Z,25.07
2019-04-21T13:05:34.108Z,24.80
2019-04-21T13:08:07.043Z,26.57
2019-04-21T13:10:38.152Z,26.67
2019-04-21T13:13:10.100Z,25.90
2019-04-21T13:15:40.180Z,26.87
2019-04-21T13:18:10.135Z,26.77
2019-04-21T13:20:40.202Z,25.83
2019-04-21T13:23:10.196Z,25.80
2019-04-21T13:25:39.871Z,28.57
2019-04-21T13:28:10.450Z,24.17
2019-04-21T13:30:40.417Z,25.37
2019-04-21T13:33:11.168Z,23.87
2019-04-21T13:35:41.315Z,22.87
2019-04-21T13:38:20.079Z,23.97
2019-04-21T13:41:10.740Z,26.47
2019-04-21T13:43:27.353Z,24.93
2019-04-21T13:45:57.515Z,26.00
2019-04-21T13:48:28.505Z,24.37
2019-04-21T13:51:00.279Z,23.93
2019-04-21T13:53:32.586Z,24.40
2019-04-21T13:56:02.601Z,24.67
2019-04-21T13:58:32.690Z,22.17
2019-04-21T14:01:03.694Z,25.43
2019-04-21T14:03:33.677Z,26.90
2019-04-21T14:06:04.521Z,24.70
2019-04-21T14:08:35.092Z,20.87
2019-04-21T14:11:05.547Z,22.17
2019-04-21T14:13:36.449Z,21.93
2019-04-21T14:16:06.582Z,21.37
2019-04-21T14:18:36.606Z,22.10
2019-04-21T14:21:07.237Z,19.17
2019-04-21T14:23:43.395Z,19.10
2019-04-21T14:26:08.909Z,19.97
2019-04-21T14:28:38.960Z,20.03
2019-04-21T14:31:10.372Z,22.00
2019-04-21T14:33:40.376Z,19.90
2019-04-21T14:36:10.709Z,22.87
2019-04-21T14:38:40.756Z,20.37
2019-04-21T14:41:12.373Z,19.93
2019-04-21T14:43:42.206Z,17.60
2019-04-21T14:46:35.284Z,21.27
2019-04-21T14:49:19.451Z,16.70
2019-04-21T14:51:59.061Z,19.67
2019-04-21T14:55:00.672Z,19.07
2019-04-21T14:57:31.556Z,18.63
2019-04-21T15:00:02.901Z,16.93
2019-04-21T15:02:38.133Z,21.33
2019-04-21T15:05:09.442Z,22.37
2019-04-21T15:07:39.398Z,19.53
2019-04-21T15:10:15.355Z,16.37
2019-04-21T15:12:41.750Z,16.37
2019-04-21T15:15:12.294Z,20.43
2019-04-21T15:17:44.030Z,18.00
2019-04-21T15:20:20.131Z,18.03
2019-04-21T15:22:52.443Z,18.40
2019-04-21T15:25:23.754Z,16.27
2019-04-21T15:27:55.067Z,19.50
2019-04-21T15:30:26.844Z,15.13
2019-04-21T15:32:58.244Z,17.30
2019-04-21T15:35:29.076Z,15.40
2019-04-21T15:38:00.204Z,17.40
2019-04-21T15:40:41.905Z,14.60
2019-04-21T15:43:06.597Z,14.73
2019-04-21T15:45:37.075Z,14.13
2019-04-21T15:48:08.139Z,14.30
2019-04-21T15:50:39.794Z,14.70
2019-04-21T15:53:11.933Z,12.77
2019-04-21T15:55:59.193Z,13.10
2019-04-21T15:58:46.496Z,15.40
2019-04-21T16:01:41.056Z,14.67
2019-04-21T16:04:12.694Z,15.53
2019-04-21T16:06:43.556Z,17.37
2019-04-21T16:09:17.695Z,16.90
2019-04-21T16:11:46.114Z,17.63
2019-04-21T16:14:16.697Z,56.37
2019-04-21T16:16:47.451Z,114.30
2019-04-21T16:19:18.462Z,24.27
2019-04-21T16:21:52.809Z,17.57
2019-04-21T16:24:23.327Z,19.80
2019-04-21T16:26:53.192Z,19.60
2019-04-21T16:29:23.095Z,16.70
2019-04-21T16:31:53.302Z,34.20
2019-04-21T16:34:35.411Z,20.03
2019-04-21T16:36:56.669Z,22.90
2019-04-21T16:39:27.329Z,29.10
2019-04-21T16:41:58.332Z,45.40
2019-04-21T16:44:29.392Z,45.57
2019-04-21T16:47:01.208Z,328.67
2019-04-21T16:49:33.568Z,971.07
2019-04-21T16:52:32.120Z,415.87
2019-04-21T16:55:27.073Z,329.60
2019-04-21T16:58:20.579Z,506.10
2019-04-21T17:01:01.156Z,247.17
2019-04-21T17:03:26.404Z,297.63
2019-04-21T17:05:56.297Z,71.73
2019-04-21T17:08:28.218Z,241.67
2019-04-21T17:11:08.119Z,18.60
2019-04-21T17:13:31.972Z,16.50
2019-04-21T17:16:29.915Z,15.33
2019-04-21T17:18:47.698Z,14.57
2019-04-21T17:21:06.879Z,16.53
2019-04-21T17:23:37.674Z,13.97
2019-04-21T17:26:08.892Z,16.83
2019-04-21T17:28:40.558Z,15.80
2019-04-21T17:31:11.027Z,15.87
2019-04-21T17:33:46.536Z,17.10
2019-04-21T17:36:16.798Z,16.67
2019-04-21T17:38:50.019Z,13.33
2019-04-21T17:41:27.918Z,16.27
2019-04-21T17:43:52.570Z,16.13
2019-04-21T17:46:33.337Z,15.07
2019-04-21T17:48:55.104Z,12.57
2019-04-21T17:51:49.586Z,14.27
2019-04-21T17:54:29.696Z,13.00
2019-04-21T17:57:20.218Z,14.60
2019-04-21T18:02:17.451Z,14.23
2019-04-21T18:04:49.310Z,12.67
2019-04-21T18:07:31.561Z,14.30
2019-04-21T18:10:11.516Z,12.73
2019-04-21T18:12:33.653Z,13.37
2019-04-21T18:15:02.430Z,12.80
2019-04-21T18:17:20.739Z,13.40
2019-04-21T18:19:51.797Z,13.67
2019-04-21T18:22:58.373Z,13.27
2019-04-21T18:25:44.433Z,13.63
2019-04-21T18:28:02.972Z,13.23
2019-04-21T18:30:56.631Z,12.53
2019-04-21T18:33:32.067Z,14.93
2019-04-21T18:36:23.843Z,12.33
2019-04-21T18:39:10.348Z,12.63
2019-04-21T18:41:30.089Z,15.17
2019-04-21T18:47:16.920Z,13.07
2019-04-21T18:49:41.806Z,12.90
2019-04-21T18:52:24.605Z,10.93
2019-04-21T18:55:01.199Z,12.57
2019-04-21T18:57:32.656Z,11.43
2019-04-21T18:59:51.302Z,13.37
2019-04-21T19:02:22.429Z,10.93
2019-04-21T19:04:55.848Z,11.50
2019-04-21T19:07:45.521Z,12.50
2019-04-21T19:10:22.277Z,11.30
2019-04-21T19:13:16.180Z,12.10
2019-04-21T19:15:15.981Z,10.93
2019-04-21T19:18:17.043Z,13.23
2019-04-21T19:20:36.203Z,12.23
2019-04-21T19:22:52.262Z,13.27
2019-04-21T19:25:20.908Z,10.67
2019-04-21T19:27:55.395Z,11.23
2019-04-21T19:30:38.490Z,11.80
2019-04-21T19:32:59.460Z,10.97
2019-04-21T19:35:14.940Z,11.07
2019-04-21T19:37:55.163Z,14.07
2019-04-21T19:40:33.071Z,13.80
2019-04-21T19:42:58.180Z,12.43
2019-04-21T19:45:35.273Z,16.00
2019-04-21T19:48:09.419Z,13.73
2019-04-21T19:50:46.759Z,13.77
2019-04-21T19:53:05.195Z,13.60
2019-04-21T19:55:27.783Z,13.27
2019-04-21T19:57:58.904Z,15.60
2019-04-21T20:00:28.839Z,14.37
2019-04-21T20:02:59.040Z,11.50
2019-04-21T20:05:36.153Z,11.40
2019-04-21T20:08:17.629Z,12.17
2019-04-21T20:10:48.365Z,14.03
2019-04-21T20:13:35.422Z,10.77
2019-04-21T20:15:57.144Z,11.50
2019-04-21T20:18:22.260Z,12.17
2019-04-21T20:20:41.003Z,10.37
2019-04-21T20:23:18.058Z,11.07
2019-04-21T20:25:49.072Z,13.83
2019-04-21T20:28:29.471Z,15.60
2019-04-21T20:31:09.592Z,12.10
2019-04-21T20:36:15.826Z,11.67
2019-04-21T20:38:35.295Z,12.27
2019-04-21T20:41:16.123Z,11.90
2019-04-21T20:43:45.663Z,12.77
2019-04-21T20:46:15.685Z,12.70
2019-04-21T20:49:06.998Z,12.57
2019-04-21T20:51:41.749Z,15.47
2019-04-21T20:54:16.089Z,15.33
2019-04-21T20:56:49.722Z,13.47
2019-04-21T20:59:14.744Z,13.93
2019-04-21T21:01:51.938Z,12.27
2019-04-21T21:04:19.168Z,12.33
2019-04-21T21:06:48.359Z,12.20
2019-04-21T21:09:18.350Z,14.23
2019-04-21T21:12:10.173Z,14.50
2019-04-21T21:14:28.085Z,13.77
2019-04-21T21:17:06.541Z,13.93
2019-04-21T21:19:37.758Z,13.23
2019-04-21T21:21:58.853Z,12.87
2019-04-21T21:24:41.888Z,16.03
2019-04-21T21:27:05.536Z,13.30
2019-04-21T21:29:41.798Z,12.00
2019-04-21T21:32:16.647Z,12.07
2019-04-21T21:34:45.441Z,15.67
2019-04-21T21:37:21.801Z,13.40
2019-04-21T21:39:51.949Z,12.63
2019-04-21T21:42:02.776Z,13.73
2019-04-21T21:44:32.535Z,13.90
2019-04-21T21:47:17.501Z,13.80
2019-04-21T21:49:53.995Z,10.73
2019-04-21T21:52:22.275Z,11.70
2019-04-21T21:54:41.149Z,11.93
2019-04-21T21:57:12.334Z,13.57
2019-04-21T21:59:43.563Z,15.20
2019-04-21T22:02:17.233Z,14.10
2019-04-21T22:04:58.207Z,13.33
2019-04-21T22:07:20.144Z,13.87
2019-04-21T22:09:50.348Z,13.37
2019-04-21T22:12:20.496Z,13.87
2019-04-21T22:14:53.775Z,12.03
2019-04-21T22:17:41.690Z,12.57
2019-04-21T22:20:13.446Z,13.03
2019-04-21T22:22:41.519Z,12.73
2019-04-21T22:25:09.481Z,12.50
2019-04-21T22:27:31.105Z,14.47
2019-04-21T22:30:03.964Z,12.20
2019-04-21T22:32:34.605Z,13.20
2019-04-21T22:35:09.842Z,12.77
2019-04-21T22:37:50.018Z,12.73
2019-04-21T22:40:21.891Z,13.77
2019-04-21T22:42:53.588Z,14.30
2019-04-21T22:45:15.466Z,14.17
2019-04-21T22:47:47.891Z,15.00
2019-04-21T22:50:48.482Z,12.43
2019-04-21T22:53:20.796Z,13.70
2019-04-21T22:56:00.100Z,16.47
2019-04-21T22:58:25.936Z,14.17
2019-04-21T23:00:57.100Z,13.13
2019-04-21T23:03:28.493Z,15.87
2019-04-21T23:06:01.469Z,16.47
2019-04-21T23:08:36.275Z,13.90
2019-04-21T23:11:06.239Z,13.17
2019-04-21T23:13:34.144Z,14.53
2019-04-21T23:16:06.209Z,13.83
2019-04-21T23:18:46.349Z,13.97
2019-04-21T23:21:23.413Z,14.47
2019-04-21T23:23:59.389Z,16.67
2019-04-21T23:26:25.235Z,12.10
2019-04-21T23:29:02.022Z,14.63
2019-04-21T23:31:34.538Z,13.60
2019-04-21T23:33:46.517Z,14.63
2019-04-21T23:36:21.035Z,13.13
2019-04-21T23:38:51.437Z,14.57
2019-04-21T23:41:21.494Z,14.23
2019-04-21T23:43:59.158Z,13.87
2019-04-21T23:46:28.169Z,12.40
2019-04-21T23:49:13.952Z,14.03
2019-04-21T23:51:39.755Z,12.50
2019-04-21T23:54:01.812Z,14.03
2019-04-21T23:56:35.784Z,14.03
2019-04-21T23:59:07.463Z,13.27
